Terminal Aerodrome Forecast
Issued by NWS

Home | Current Version | Previous Version | Text Only | Print | Product List | Glossary On
Versions: 1 2 3 4 5 6 7 8 9 10 11 12 13 14 15 16 17 18 19 20 21 22 23 24 25 26 27
517
FTUS41 KPBZ 281747
TAFLBE
TAF
KLBE 281747Z 2818/2918 20008KT P6SM VCSH BKN040
     FM281900 18008KT P6SM -SHRA VCTS BKN050CB
     FM290100 18007KT P6SM VCSH OVC080
     FM290600 20007KT P6SM -SHRA VCTS OVC040CB
     FM291000 23008KT 3SM BR VCSH BKN008
     FM291500 25010KT P6SM BKN035=

USA.gov is the U.S. government's official web portal to all federal, state and local government web resources and services.